ADDS METAR Data INFO
IDs: Format: Raw Decoded Include TAF

Data at: 1524 UTC 18 Jun 2018

PAIL 181453Z 09012G20KT 9SM -RA OVC044 11/09 A2942 RMK AO2 SLP965 P0005 60005 T01060094 55007
PAIL 181353Z 08013G23KT 10SM -RA FEW039 OVC050 11/09 A2942 RMK AO2 RAB00 SLP962 P0000 T01060089
PAIL 181253Z AUTO 08011G17KT 10SM FEW042 SCT049 OVC080 11/09 A2942 RMK AO2 SLP964 T01060089 TSNO
PAIL 181153Z AUTO 08010G19KT 10SM BKN042 BKN050 OVC075 11/09 A2944 RMK AO2 RAE51 SLP972 P0004 60007 70014 T01060094 10111 20100 56028 TSNO
PAIL 181053Z AUTO 08012G21KT 10SM -RA SCT055 OVC080 11/09 A2947 RMK AO2 RAE29B51 SLP980 P0000 T01060094 TSNO
PAIL 180953Z AUTO 08014G19KT 10SM -RA OVC046 11/09 A2950 RMK AO2 RAB39 SLP990 P0000 T01060089 TSNO
PAIL 180853Z AUTO 05008KT 10SM OVC047 10/09 A2953 RMK AO2 SLP000 60003 T01000089 401170089 58037 TSNO
PAIL 180753Z AUTO 01006KT 10SM OVC046 10/09 A2957 RMK AO2 RAE31 PRESFR SLP014 P0001 T01000094 TSNO
PAIL 180653Z AUTO 06007KT 10SM -RA OVC047 10/09 A2960 RMK AO2 SLP026 P0002 T01000094 TSNO
PAIL 180553Z AUTO 06008KT 10SM -RA SCT045 OVC055 10/09 A2964 RMK AO2 PRESFR SLP037 P0003 60007 T01000094 10117 20100 58040 TSNO
PAIL 180453Z 08007KT 10SM -RA OVC055 10/09 A2968 RMK AO2 SLP052 P0004 T01000094
PAIL 180353Z 08010KT 10SM -RA FEW037 BKN050 OVC075 11/09 A2972 RMK AO2 RAB11 SLP066 P0000 T01110089
PAIL 180301Z 09013G21KT 10SM OVC031 12/08 A2975 RMK AO2 T01170078
PAIL 180253Z 09012KT 10SM OVC029 11/08 A2975 RMK AO2 SLP077 60000 T01110078 58028
PAIL 180153Z 10014G25KT 10SM BKN034 12/08 A2978 RMK AO2 PK WND 10026/0110 SLP086 T01170078
PAIL 180053Z 09018G27KT 10SM SCT029 BKN034 OVC075 11/08 A2982 RMK AO2 PK WND 09029/0037 RAE2357B22E49 SLP100 P0000 T01060078
PAIL 172353Z 09015G25KT 10SM -RA FEW030 SCT037 OVC080 10/07 A2984 RMK AO2 PK WND 10031/2301 RAB22 SLP105 P0000 60000 T01000067 10111 20089 51007
PAIL 172253Z 10019G28KT 10SM OVC030 11/06 A2983 RMK AO2 PK WND 10029/2213 SLP103 T01060061
PAIL 172153Z 11018G26KT 10SM OVC030 11/07 A2982 RMK AO2 PK WND 11028/2140 SLP100 T01060067
PAIL 172053Z 10013G23KT 10SM OVC024 09/07 A2982 RMK AO2 PK WND 09028/2029 SLP098 T00940072 53014
PAIL 171953Z 10016G27KT 10SM OVC028 09/07 A2981 RMK AO2 PK WND 09031/1925 SLP095 T00890072
PAIL 171935Z 09021G30KT 10SM OVC029 09/07 A2980 RMK AO2 PK WND 09031/1925 T00940072
PAIL 171901Z 09020G31KT 10SM BKN032 OVC100 09/07 A2978 RMK AO2 PK WND 10031/1858 T00940072
PAIL 171853Z 09019G27KT 10SM BKN027 OVC032 09/07 A2978 RMK AO2 PK WND 09029/1758 SLP086 T00940072
PAIL 171753Z 09015G26KT 10SM BKN027 OVC032 09/07 A2977 RMK AO2 PK WND 10027/1742 SLP084 60000 T00940072 10094 20089 51015
PAIL 171653Z 10014G22KT 10SM BKN027 OVC032 09/07 A2977 RMK AO2 PK WND 11026/1626 SLP083 T00940072
PAIL 171553Z AUTO 09014G23KT 10SM OVC080 09/07 A2974 RMK AO2 SLP072 T00940072 TSNO
PAIL 171453Z AUTO 08015G23KT 10SM BKN070 OVC085 09/08 A2973 RMK AO2 SLP069 60000 T00890078 51006 TSNO
PAIL 171353Z AUTO 09015G24KT 10SM BKN095 09/07 A2973 RMK AO2 SLP068 T00890072 TSNO
PAIL 171253Z AUTO 09012KT 10SM OVC100 09/07 A2972 RMK AO2 RAE1154 SLP066 P0000 T00940072 TSNO
PAIL 171153Z AUTO 09014G21KT 10SM -RA FEW031 BKN041 OVC060 09/08 A2971 RMK AO2 RAB17 SLP064 P0000 60002 70020 T00890078 10094 20089 51012 TSNO
PAIL 171053Z AUTO 09012G18KT 10SM BKN049 OVC070 09/08 A2970 RMK AO2 SLP060 T00890078 TSNO
PAIL 170953Z AUTO 08014G20KT 10SM OVC040 09/08 A2969 RMK AO2 SLP055 T00890083 TSNO
PAIL 170853Z AUTO 08014G21KT 10SM SCT046 OVC070 09/08 A2968 RMK AO2 SLP052 60002 T00890083 401170089 53010 TSNO
PAIL 170753Z AUTO 08013G21KT 10SM OVC055 09/08 A2966 RMK AO2 RAE30 SLP046 P0000 T00890083 TSNO
PAIL 170653Z AUTO 08014G22KT 10SM -RA OVC055 09/09 A2965 RMK AO2 SLP042 P0002 T00890089 TSNO
PAIL 170553Z AUTO 09010G17KT 9SM -RA FEW027 BKN041 OVC050 09/09 A2965 RMK AO2 SLP042 P0003 60003 T00890089 10117 20089 53006 TSNO
PAIL 170453Z 10012KT 10SM -RA FEW026 BKN060 OVC075 10/09 A2964 RMK AO2 RAB19 SLP039 P0000 T01000089
PAIL 170409Z 10011KT 10SM BKN026 OVC090 09/08 A2963 RMK AO2 T00940083
PAIL 170353Z 10013G20KT 10SM SCT024 OVC085 10/08 A2963 RMK AO2 SLP036 T01000083